Time;durP1;ratioP1;P1;durP2;ratioP2;P2;SDS_P1;SDS_P2;PMS_P1;PMS_P2;Temp;Humidity;BMP_temperature;BMP_pressure;BME280_temperature;BME280_humidity;BME280_pressure;Samples;Min_cycle;Max_cycle;Signal;HPM_P1;HPM_P2
2022/09/28 00:01:22;;;;;;;2.23;1.30;;;12.50;57.30;;;;;;20839;6761;122062;-85
2022/09/28 00:03:58;;;;;;;1.42;1.33;;;12.40;58.40;;;;;;20427;6764;313082;-86
2022/09/28 00:06:34;;;;;;;1.70;1.60;;;12.40;58.30;;;;;;20948;6772;117141;-85
2022/09/28 00:09:09;;;;;;;2.20;1.70;;;12.40;58.30;;;;;;20721;6745;277534;-85
2022/09/28 00:11:46;;;;;;;1.50;1.40;;;12.80;57.40;;;;;;20722;6716;278370;-86
2022/09/28 00:14:21;;;;;;;1.00;1.00;;;12.70;57.30;;;;;;20886;6758;117551;-84
2022/09/28 00:16:57;;;;;;;1.30;1.30;;;12.70;57.40;;;;;;20670;6743;335621;-85
2022/09/28 00:19:33;;;;;;;1.60;1.50;;;12.70;57.40;;;;;;20617;6758;278001;-85
2022/09/28 00:22:09;;;;;;;1.10;1.10;;;13.00;57.10;;;;;;20614;6743;314972;-84
2022/09/28 00:24:45;;;;;;;1.93;1.07;;;13.10;56.60;;;;;;20965;6716;123562;-85
2022/09/28 00:27:20;;;;;;;1.80;1.00;;;12.90;56.80;;;;;;20925;6745;117024;-85
2022/09/28 00:29:57;;;;;;;1.10;1.00;;;12.60;58.10;;;;;;20729;6716;306003;-85
2022/09/28 00:32:32;;;;;;;0.83;0.80;;;12.60;58.10;;;;;;20882;6716;119073;-85
2022/09/28 00:35:08;;;;;;;1.70;1.27;;;12.50;58.10;;;;;;20954;6716;116974;-85
2022/09/28 00:37:43;;;;;;;1.63;1.10;;;12.30;58.70;;;;;;20639;6745;277693;-85
2022/09/28 00:40:19;;;;;;;2.65;1.30;;;12.40;59.20;;;;;;20661;6747;309608;-84
2022/09/28 00:42:56;;;;;;;2.00;0.80;;;12.80;58.60;;;;;;20791;6747;117045;-85
2022/09/28 00:45:32;;;;;;;2.63;1.30;;;12.40;59.00;;;;;;20910;6742;117206;-85
2022/09/28 00:48:08;;;;;;;1.73;1.10;;;12.40;58.90;;;;;;20873;6742;117297;-86
2022/09/28 00:50:43;;;;;;;2.13;1.00;;;12.20;59.50;;;;;;20873;6744;117883;-85
2022/09/28 00:53:19;;;;;;;1.60;0.90;;;12.00;60.00;;;;;;20725;6746;117196;-85
2022/09/28 00:55:56;;;;;;;2.43;1.00;;;11.90;60.40;;;;;;20949;6715;119162;-85
2022/09/28 00:58:37;;;;;;;2.27;1.00;;;11.80;60.70;;;;;;20845;6753;117069;-85
2022/09/28 01:01:14;;;;;;;1.37;1.00;;;12.10;61.40;;;;;;20654;6742;341050;-86
2022/09/28 01:03:50;;;;;;;1.60;0.90;;;12.00;61.30;;;;;;20708;6748;121658;-84
2022/09/28 01:06:26;;;;;;;3.27;1.00;;;12.10;60.70;;;;;;20930;6728;118238;-85
2022/09/28 01:09:01;;;;;;;1.90;1.00;;;12.00;60.90;;;;;;20931;6728;116519;-84
2022/09/28 01:11:36;;;;;;;1.77;1.00;;;12.00;61.30;;;;;;20685;6728;339036;-85
2022/09/28 01:14:12;;;;;;;1.60;1.23;;;12.20;61.50;;;;;;20891;6741;124085;-84
2022/09/28 01:17:10;;;;;;;3.70;1.00;;;12.30;61.10;;;;;;20890;6750;117059;-84
2022/09/28 01:20:04;;;;;;;2.45;1.00;;;12.20;61.30;;;;;;20703;6722;334462;-85
2022/09/28 01:22:43;;;;;;;2.70;1.13;;;12.50;61.20;;;;;;20864;6722;117002;-85
2022/09/28 01:25:18;;;;;;;2.43;1.17;;;12.40;60.70;;;;;;20839;6800;117104;-85
2022/09/28 01:27:54;;;;;;;4.87;1.10;;;12.30;61.00;;;;;;20905;6730;117485;-85
2022/09/28 01:30:29;;;;;;;2.27;0.80;;;12.10;61.40;;;;;;20918;6730;117168;-84
2022/09/28 01:33:08;;;;;;;1.90;1.00;;;12.00;61.60;;;;;;20809;6730;116967;-84
2022/09/28 01:35:55;;;;;;;2.80;1.37;;;11.90;61.80;;;;;;20689;6729;305727;-85
2022/09/28 01:38:31;;;;;;;1.80;0.80;;;12.20;61.70;;;;;;20977;6714;116558;-84
2022/09/28 01:41:06;;;;;;;1.75;1.17;;;12.30;61.20;;;;;;20675;6741;337583;-85
2022/09/28 01:43:42;;;;;;;2.30;0.90;;;12.60;61.00;;;;;;20740;6741;117878;-85
2022/09/28 01:46:21;;;;;;;1.57;1.10;;;12.50;60.60;;;;;;20738;6714;305316;-84
2022/09/28 01:48:57;;;;;;;4.13;0.97;;;12.70;60.00;;;;;;20875;6741;121339;-84
2022/09/28 01:51:42;;;;;;;2.57;0.90;;;12.70;59.90;;;;;;20851;6743;122658;-85
2022/09/28 01:54:24;;;;;;;4.25;1.30;;;12.50;60.30;;;;;;20630;6755;339587;-84
2022/09/28 01:57:17;;;;;;;2.93;1.30;;;13.10;59.30;;;;;;20629;6741;277012;-85
2022/09/28 02:00:06;;;;;;;2.22;1.30;;;13.00;59.20;;;;;;20171;6796;340267;-84
2022/09/28 02:02:49;;;;;;;3.22;1.40;;;13.50;57.70;;;;;;20485;6743;338234;-85
2022/09/28 02:05:28;;;;;;;2.80;1.30;;;13.50;57.60;;;;;;20425;6804;278086;-84
2022/09/28 02:08:18;;;;;;;3.30;1.30;;;13.80;57.10;;;;;;20757;6714;300091;-84
2022/09/28 02:10:56;;;;;;;3.00;1.30;;;13.70;57.10;;;;;;20887;6741;117553;-84
2022/09/28 02:13:31;;;;;;;3.37;1.30;;;13.40;57.50;;;;;;20436;6763;313926;-84
2022/09/28 02:16:37;;;;;;;1.97;1.33;;;13.40;57.80;;;;;;20717;6720;306698;-84
2022/09/28 02:19:16;;;;;;;6.37;1.37;;;13.60;57.40;;;;;;20712;6736;305632;-84
2022/09/28 02:22:08;;;;;;;3.30;1.40;;;13.60;57.10;;;;;;20598;6750;297886;-86
2022/09/28 02:24:44;;;;;;;3.30;1.07;;;13.70;57.70;;;;;;20914;6731;117507;-84
2022/09/28 02:27:43;;;;;;;2.50;1.27;;;13.40;57.40;;;;;;20901;6735;117201;-84
2022/09/28 02:30:19;;;;;;;1.33;0.90;;;13.10;58.30;;;;;;20918;6724;124733;-84
2022/09/28 02:32:54;;;;;;;1.80;1.10;;;12.80;59.20;;;;;;20824;6724;120690;-84
2022/09/28 02:35:30;;;;;;;2.40;1.40;;;12.50;59.80;;;;;;20707;6724;276631;-84
2022/09/28 02:38:06;;;;;;;4.67;1.57;;;12.70;60.00;;;;;;20930;6738;118138;-83
2022/09/28 02:40:45;;;;;;;3.40;1.30;;;12.70;59.80;;;;;;20657;6787;277102;-84
2022/09/28 02:43:27;;;;;;;3.83;1.70;;;12.90;59.90;;;;;;20552;6732;303633;-84
2022/09/28 02:46:19;;;;;;;3.03;1.17;;;13.20;59.20;;;;;;20615;6823;117229;-84
2022/09/28 02:49:04;;;;;;;5.43;1.73;;;13.10;59.10;;;;;;20877;6734;117565;-84
2022/09/28 02:51:56;;;;;;;2.80;1.50;;;12.80;59.80;;;;;;20800;6758;117461;-84
2022/09/28 02:54:35;;;;;;;2.53;1.10;;;12.60;60.40;;;;;;20900;6733;117578;-84
2022/09/28 02:57:27;;;;;;;2.90;1.00;;;12.40;60.80;;;;;;20860;6748;117958;-84
2022/09/28 03:00:10;;;;;;;2.37;1.40;;;12.50;61.40;;;;;;20630;6752;307047;-84
2022/09/28 03:03:08;;;;;;;2.07;1.40;;;12.50;61.40;;;;;;20751;6750;118071;-84
2022/09/28 03:05:57;;;;;;;3.03;1.55;;;12.50;61.00;;;;;;20600;6748;334808;-83
2022/09/28 03:08:58;;;;;;;1.87;1.00;;;12.80;60.70;;;;;;20868;6745;116969;-84
2022/09/28 03:11:38;;;;;;;2.20;1.40;;;12.60;61.70;;;;;;20863;6732;117898;-82
2022/09/28 03:14:13;;;;;;;4.53;1.43;;;12.60;60.90;;;;;;20902;6732;117166;-86
2022/09/28 03:16:49;;;;;;;3.15;1.33;;;12.40;61.30;;;;;;20631;6801;325188;-84
2022/09/28 03:19:26;;;;;;;3.03;1.40;;;12.60;61.50;;;;;;20688;6732;300726;-86
2022/09/28 03:22:02;;;;;;;0.90;0.80;;;13.00;60.60;;;;;;20912;6716;116694;-85
2022/09/28 03:24:38;;;;;;;2.53;1.35;;;12.90;60.20;;;;;;20786;6705;334668;-85
2022/09/28 03:27:15;;;;;;;2.67;1.20;;;13.30;59.90;;;;;;20832;6705;301433;-86
2022/09/28 03:29:50;;;;;;;2.63;1.20;;;13.30;59.80;;;;;;20998;6705;117203;-85
2022/09/28 03:32:26;;;;;;;1.63;0.83;;;13.20;59.80;;;;;;20941;6705;116835;-84
2022/09/28 03:35:01;;;;;;;3.55;1.30;;;12.80;60.20;;;;;;20790;6705;277634;-86
2022/09/28 03:37:40;;;;;;;1.77;1.10;;;12.90;60.50;;;;;;20978;6705;140732;-84
2022/09/28 03:40:14;;;;;;;1.60;1.10;;;12.90;60.40;;;;;;20952;6720;117093;-85
2022/09/28 03:42:50;;;;;;;2.90;1.35;;;12.60;60.50;;;;;;20622;6720;308751;-86
2022/09/28 03:45:25;;;;;;;1.77;1.07;;;12.80;60.80;;;;;;20945;6720;116780;-85
2022/09/28 03:48:11;;;;;;;2.12;1.12;;;12.90;61.10;;;;;;20707;6722;325553;-85
2022/09/28 03:50:37;;;;;;;1.63;1.00;;;12.90;60.50;;;;;;20858;6746;117017;-85
2022/09/28 03:53:13;;;;;;;1.90;1.10;;;12.90;60.40;;;;;;20745;6747;116984;-86
2022/09/28 03:55:52;;;;;;;1.07;0.70;;;12.60;60.70;;;;;;20877;6735;117313;-86
2022/09/28 03:58:26;;;;;;;2.10;0.90;;;12.30;61.70;;;;;;20897;6735;117520;-85
2022/09/28 04:01:03;;;;;;;1.50;0.90;;;12.30;61.60;;;;;;20620;6753;303752;-86
2022/09/28 04:03:38;;;;;;;1.30;0.80;;;12.50;61.40;;;;;;20418;6761;278861;-85
2022/09/28 04:06:14;;;;;;;1.90;0.90;;;12.90;60.60;;;;;;20614;6757;307724;-85
2022/09/28 04:08:49;;;;;;;1.60;0.90;;;13.20;59.60;;;;;;20689;6733;305867;-85
2022/09/28 04:11:25;;;;;;;1.60;0.90;;;13.40;59.50;;;;;;20636;6748;310447;-85
2022/09/28 04:14:00;;;;;;;2.13;0.90;;;13.50;58.30;;;;;;20655;6807;124150;-85
2022/09/28 04:16:36;;;;;;;0.57;0.57;;;13.30;58.50;;;;;;20852;6748;117457;-86
2022/09/28 04:19:12;;;;;;;1.60;0.60;;;12.60;59.70;;;;;;20834;6751;117034;-86
2022/09/28 04:21:59;;;;;;;0.50;0.50;;;12.60;60.00;;;;;;20860;6748;117765;-93
2022/09/28 04:24:25;;;;;;;1.70;0.60;;;12.40;60.60;;;;;;20847;6750;117146;-88
2022/09/28 04:29:56;;;;;;;1.60;0.50;;;12.40;61.50;;;;;;20920;6732;117579;-87
2022/09/28 04:32:32;;;;;;;3.62;3.33;;;12.40;61.00;;;;;;20645;6731;307291;-86
2022/09/28 04:35:08;;;;;;;1.57;1.37;;;12.90;60.70;;;;;;20657;6761;276541;-91
2022/09/28 04:37:44;;;;;;;1.52;0.90;;;12.90;60.70;;;;;;20639;6746;279586;-86
2022/09/28 04:40:21;;;;;;;1.60;1.50;;;13.10;59.90;;;;;;20648;6746;306771;-89
2022/09/28 04:42:56;;;;;;;1.43;0.80;;;13.30;59.10;;;;;;20756;6746;123956;-88
2022/09/28 04:45:35;;;;;;;2.17;2.07;;;13.10;59.20;;;;;;20827;6751;120827;-87
2022/09/28 04:48:11;;;;;;;2.00;1.90;;;12.80;60.10;;;;;;20955;6720;117092;-91
2022/09/28 04:50:55;;;;;;;2.15;1.10;;;12.50;60.70;;;;;;20751;6720;303981;-92
2022/09/28 04:53:28;;;;;;;1.37;0.60;;;12.70;61.00;;;;;;20849;6748;68119;-92
2022/09/28 04:56:08;;;;;;;0.93;0.60;;;12.60;60.80;;;;;;20898;6805;116648;-92
2022/09/28 04:59:03;;;;;;;1.17;0.87;;;12.40;61.20;;;;;;20768;6731;117493;-95
2022/09/28 05:01:49;;;;;;;;;;;;;;;;;;;;;
2022/09/28 05:04:16;;;;;;;2.30;1.07;;;12.50;61.90;;;;;;21005;6733;119793;-92
2022/09/28 05:06:53;;;;;;;1.90;1.80;;;12.50;61.60;;;;;;21024;6733;67661;-93
2022/09/28 05:09:31;;;;;;;1.10;1.00;;;12.40;62.00;;;;;;20568;6790;72657;-93
2022/09/28 05:12:08;;;;;;;2.00;1.90;;;12.20;62.50;;;;;;20977;6734;116974;-92
2022/09/28 05:14:51;;;;;;;0.70;0.70;;;12.10;63.40;;;;;;21058;6722;116057;-91
2022/09/28 05:17:29;;;;;;;;;;;;;;;;;;;;;
2022/09/28 05:20:07;;;;;;;1.05;0.90;;;12.00;63.20;;;;;;20818;6727;303669;-91
2022/09/28 05:22:41;;;;;;;0.70;0.70;;;12.20;63.30;;;;;;20895;6727;116983;-87
2022/09/28 05:25:07;;;;;;;0.87;0.87;;;12.30;62.80;;;;;;20926;6727;117022;-89
2022/09/28 05:27:43;;;;;;;1.10;0.90;;;12.20;63.00;;;;;;20692;6727;325209;-91
2022/09/28 05:30:22;;;;;;;1.47;0.83;;;12.40;62.90;;;;;;20829;6746;117130;-86
2022/09/28 05:32:55;;;;;;;2.53;1.92;;;12.50;63.30;;;;;;20546;6746;301356;-86
2022/09/28 05:35:32;;;;;;;1.80;1.70;;;12.60;62.10;;;;;;20670;6734;277823;-86
2022/09/28 05:38:08;;;;;;;1.17;1.07;;;12.90;61.30;;;;;;20951;6733;117144;-88
2022/09/28 05:40:44;;;;;;;0.90;0.90;;;12.90;61.30;;;;;;20890;6734;117389;-87
2022/09/28 05:43:19;;;;;;;1.45;1.30;;;12.60;61.90;;;;;;20566;6733;344038;-88
2022/09/28 05:45:55;;;;;;;0.93;0.80;;;12.80;61.10;;;;;;20656;6733;289826;-88
2022/09/28 05:48:31;;;;;;;0.77;0.70;;;13.00;59.70;;;;;;20904;6733;123047;-88
2022/09/28 05:51:08;;;;;;;1.80;0.70;;;13.00;59.70;;;;;;20943;6733;117302;-88
2022/09/28 05:53:42;;;;;;;0.97;0.97;;;12.70;60.10;;;;;;20754;6718;146301;-89
2022/09/28 05:56:19;;;;;;;0.70;0.70;;;12.50;60.90;;;;;;20859;6750;117284;-89
2022/09/28 05:58:57;;;;;;;2.97;1.50;;;12.20;61.30;;;;;;20622;6752;307037;-89
2022/09/28 06:01:31;;;;;;;6.60;6.10;;;12.40;60.70;;;;;;20660;6750;276364;-91
2022/09/28 06:04:07;;;;;;;1.70;1.60;;;12.70;59.50;;;;;;20605;6744;299173;-89
2022/09/28 06:06:42;;;;;;;1.35;1.05;;;12.90;59.00;;;;;;20585;6816;307070;-89
2022/09/28 06:09:17;;;;;;;0.63;0.63;;;13.10;58.30;;;;;;20829;6760;117962;-89
2022/09/28 06:11:54;;;;;;;4.20;4.00;;;12.80;58.50;;;;;;20818;6751;121531;-91
2022/09/28 06:14:30;;;;;;;1.10;0.80;;;12.40;59.40;;;;;;20436;6807;307001;-90
2022/09/28 06:17:07;;;;;;;0.60;0.60;;;12.70;59.80;;;;;;20549;6750;298600;-90
2022/09/28 06:19:44;;;;;;;1.03;0.57;;;12.70;59.70;;;;;;20833;6738;117504;-88
2022/09/28 06:22:20;;;;;;;0.40;0.40;;;12.50;59.70;;;;;;20797;6745;118553;-87
2022/09/28 06:24:55;;;;;;;1.10;0.57;;;12.20;60.50;;;;;;20859;6758;122946;-86
2022/09/28 06:27:31;;;;;;;1.12;1.00;;;12.00;61.30;;;;;;20644;6742;305852;-89
2022/09/28 06:30:06;;;;;;;1.00;0.80;;;12.20;61.40;;;;;;20702;6741;276575;-88
2022/09/28 06:32:43;;;;;;;0.73;0.73;;;12.50;60.70;;;;;;20862;6742;116754;-89
2022/09/28 06:35:20;;;;;;;1.00;0.80;;;12.40;60.40;;;;;;20787;6718;277823;-87
2022/09/28 06:37:55;;;;;;;0.98;0.98;;;12.50;60.60;;;;;;20724;6718;305185;-88
2022/09/28 06:40:30;;;;;;;0.73;0.70;;;12.80;60.10;;;;;;20867;6803;117877;-92
2022/09/28 06:43:08;;;;;;;0.93;0.93;;;12.60;60.20;;;;;;20747;6753;117077;-89
2022/09/28 06:45:41;;;;;;;2.12;1.05;;;12.40;60.90;;;;;;20687;6721;305541;-90
2022/09/28 06:48:17;;;;;;;1.53;1.10;;;12.50;61.50;;;;;;20676;6739;306653;-90
2022/09/28 06:50:52;;;;;;;1.10;1.00;;;12.80;61.00;;;;;;20660;6736;277656;-91
2022/09/28 06:53:28;;;;;;;0.85;0.77;;;13.00;60.20;;;;;;20459;6822;340875;-87
2022/09/28 06:56:05;;;;;;;0.50;0.50;;;13.30;60.00;;;;;;20578;6771;308133;-87
2022/09/28 06:58:40;;;;;;;0.60;0.60;;;13.40;59.40;;;;;;20844;6764;117074;-88
2022/09/28 07:01:16;;;;;;;2.30;0.70;;;13.20;60.00;;;;;;20547;6778;308499;-87
2022/09/28 07:03:52;;;;;;;1.33;1.17;;;13.20;59.60;;;;;;20551;6774;117536;-87
2022/09/28 07:06:30;;;;;;;1.10;1.10;;;13.30;59.60;;;;;;20623;6765;308651;-87
2022/09/28 07:09:06;;;;;;;1.10;1.10;;;13.30;59.50;;;;;;20534;6768;303857;-87
2022/09/28 07:11:39;;;;;;;1.80;1.17;;;13.60;58.50;;;;;;20832;6750;117223;-83
2022/09/28 07:14:15;;;;;;;1.35;1.25;;;13.60;58.70;;;;;;20752;6724;304230;-84
2022/09/28 07:16:50;;;;;;;0.70;0.70;;;13.70;58.20;;;;;;20882;6752;116311;-84
2022/09/28 07:19:26;;;;;;;0.75;0.75;;;13.70;58.70;;;;;;20661;6754;336424;-84
2022/09/28 07:22:04;;;;;;;0.50;0.50;;;13.80;58.50;;;;;;20789;6759;117469;-87
2022/09/28 07:24:40;;;;;;;0.80;0.50;;;13.80;58.50;;;;;;20590;6757;307487;-86
2022/09/28 07:27:16;;;;;;;0.70;0.60;;;14.30;57.70;;;;;;20496;6788;309085;-87
2022/09/28 07:29:52;;;;;;;0.70;0.67;;;14.30;57.50;;;;;;20706;6786;119650;-89
2022/09/28 07:32:27;;;;;;;1.47;1.37;;;14.20;57.80;;;;;;20776;6752;117114;-88
2022/09/28 07:35:06;;;;;;;1.20;1.20;;;13.90;58.30;;;;;;20804;6766;119399;-87
2022/09/28 07:37:38;;;;;;;1.20;1.10;;;13.70;58.80;;;;;;20641;6742;305673;-86
2022/09/28 07:43:11;;;;;;;2.50;0.90;;;14.10;57.80;;;;;;20774;6737;120366;-87
2022/09/28 07:45:49;;;;;;;1.60;1.50;;;13.90;57.80;;;;;;20804;6770;117449;-88
2022/09/28 07:48:30;;;;;;;1.30;1.20;;;13.60;58.30;;;;;;20584;6765;338238;-87
2022/09/28 07:51:00;;;;;;;0.90;0.90;;;13.70;58.60;;;;;;20874;6746;117059;-87
2022/09/28 07:53:37;;;;;;;1.67;1.00;;;13.70;58.80;;;;;;20497;6736;310509;-86
2022/09/28 07:56:12;;;;;;;1.40;1.30;;;13.80;58.70;;;;;;20777;6763;120099;-87
2022/09/28 07:58:47;;;;;;;1.40;1.30;;;13.70;58.70;;;;;;20792;6748;117222;-87
2022/09/28 08:01:22;;;;;;;1.10;1.10;;;13.50;59.10;;;;;;20525;6767;339138;-87
2022/09/28 08:03:58;;;;;;;1.50;1.40;;;13.60;58.70;;;;;;20451;6744;281891;-87
2022/09/28 08:06:35;;;;;;;2.23;2.13;;;13.80;58.00;;;;;;20793;6761;116461;-87
2022/09/28 08:09:14;;;;;;;2.50;2.00;;;13.70;58.20;;;;;;20836;6758;119242;-86
2022/09/28 08:11:51;;;;;;;3.47;3.13;;;13.40;58.60;;;;;;20754;6770;117569;-87
2022/09/28 08:14:27;;;;;;;3.40;3.30;;;13.10;59.00;;;;;;20636;6758;292363;-87
2022/09/28 08:17:05;;;;;;;5.95;5.55;;;13.20;58.80;;;;;;20642;6747;335680;-88
2022/09/28 08:22:38;;;;;;;8.00;5.10;;;12.80;59.50;;;;;;20705;6768;117089;-87
2022/09/28 08:25:13;;;;;;;1.33;0.97;;;12.80;59.50;;;;;;20747;6782;119114;-89
2022/09/28 08:27:49;;;;;;;1.90;1.80;;;12.50;60.40;;;;;;20504;6839;311799;-88
2022/09/28 08:30:26;;;;;;;1.87;1.77;;;12.70;61.50;;;;;;20534;6783;307649;-89
2022/09/28 08:33:01;;;;;;;2.27;2.00;;;13.00;59.10;;;;;;20672;6768;117053;-87
2022/09/28 08:35:37;;;;;;;2.30;2.10;;;12.80;59.10;;;;;;20811;6752;117072;-89
2022/09/28 08:38:22;;;;;;;5.18;4.37;;;12.50;60.00;;;;;;20624;6752;337763;-87
2022/09/28 08:40:55;;;;;;;6.90;6.20;;;12.60;60.00;;;;;;20854;6747;119339;-88
2022/09/28 08:43:43;;;;;;;6.27;5.77;;;12.60;60.20;;;;;;20399;6774;281364;-91
2022/09/28 08:46:19;;;;;;;3.80;3.47;;;12.80;60.20;;;;;;20542;6774;341409;-88
2022/09/28 08:49:02;;;;;;;6.03;5.47;;;13.10;58.90;;;;;;20789;6764;117662;-89
2022/09/28 08:51:46;;;;;;;5.37;4.53;;;13.10;59.30;;;;;;20563;6764;277780;-87
2022/09/28 08:54:48;;;;;;;3.10;2.80;;;13.20;58.70;;;;;;20552;6780;305025;-89
2022/09/28 08:57:33;;;;;;;2.00;1.80;;;13.50;58.70;;;;;;20764;6774;117325;-87
2022/09/28 09:00:09;;;;;;;3.90;2.00;;;13.50;59.20;;;;;;20824;6759;117956;-87
2022/09/28 09:02:46;;;;;;;2.53;2.33;;;13.30;60.10;;;;;;20736;6770;117275;-86
2022/09/28 09:05:21;;;;;;;4.00;3.40;;;13.10;60.40;;;;;;20895;6745;116151;-90
2022/09/28 09:08:00;;;;;;;4.00;3.70;;;13.00;60.70;;;;;;20652;6745;282684;-89
2022/09/28 09:10:52;;;;;;;3.27;2.57;;;13.30;60.40;;;;;;20656;6762;278322;-87
2022/09/28 09:13:34;;;;;;;3.30;3.00;;;13.80;59.10;;;;;;19856;6907;314903;-87
2022/09/28 09:16:40;;;;;;;7.82;7.32;;;14.20;58.10;;;;;;20554;6774;313966;-88
2022/09/28 09:19:35;;;;;;;4.40;4.10;;;14.50;57.20;;;;;;20590;6773;308178;-88
2022/09/28 09:22:24;;;;;;;3.93;3.73;;;14.80;56.10;;;;;;20797;6773;116221;-86
2022/09/28 09:25:17;;;;;;;2.73;1.40;;;14.60;56.30;;;;;;20948;6739;115977;-88
2022/09/28 09:28:17;;;;;;;1.80;1.70;;;14.30;57.20;;;;;;20906;6748;116108;-87
2022/09/28 09:30:59;;;;;;;1.80;1.57;;;14.00;58.00;;;;;;20894;6744;116135;-87
2022/09/28 09:33:41;;;;;;;2.57;1.60;;;13.90;58.80;;;;;;20433;6811;279943;-88
2022/09/28 09:36:36;;;;;;;2.43;2.10;;;14.10;57.20;;;;;;20769;6775;117808;-87
2022/09/28 09:39:35;;;;;;;3.93;2.30;;;14.20;57.50;;;;;;20909;6770;116818;-87
2022/09/28 09:42:47;;;;;;;6.70;6.20;;;14.10;58.30;;;;;;20630;6755;278891;-87
2022/09/28 09:45:26;;;;;;;3.62;3.30;;;14.30;57.70;;;;;;19568;7104;350008;-88
2022/09/28 09:48:05;;;;;;;2.40;2.17;;;14.80;56.80;;;;;;20470;6816;304949;-88
2022/09/28 09:50:44;;;;;;;1.50;1.40;;;15.10;54.60;;;;;;20956;6745;71059;-87
2022/09/28 09:53:26;;;;;;;2.50;2.30;;;15.00;55.00;;;;;;20551;6745;278247;-88
2022/09/28 09:56:18;;;;;;;2.63;2.43;;;15.00;53.90;;;;;;20941;6745;117279;-87
2022/09/28 09:58:53;;;;;;;2.70;1.90;;;14.90;54.70;;;;;;20700;6745;278202;-87
2022/09/28 10:01:29;;;;;;;1.60;1.40;;;15.10;53.20;;;;;;20948;6744;116651;-87
2022/09/28 10:04:05;;;;;;;2.27;2.03;;;15.10;53.80;;;;;;20922;6744;117540;-87
2022/09/28 10:06:40;;;;;;;2.90;2.30;;;14.90;54.60;;;;;;20881;6734;117629;-87
2022/09/28 10:09:16;;;;;;;3.77;1.90;;;14.80;55.20;;;;;;20966;6737;118854;-87
2022/09/28 10:11:52;;;;;;;2.93;1.70;;;14.70;56.10;;;;;;21008;6719;116721;-86
2022/09/28 10:14:27;;;;;;;2.27;1.50;;;14.70;56.50;;;;;;20996;6719;116568;-87
2022/09/28 10:17:02;;;;;;;4.85;4.43;;;14.70;56.70;;;;;;20754;6736;319528;-87
2022/09/28 10:19:38;;;;;;;5.33;4.93;;;15.00;55.90;;;;;;20959;6724;118259;-87
2022/09/28 10:22:14;;;;;;;7.00;6.40;;;15.10;56.00;;;;;;20923;6734;117290;-87
2022/09/28 10:24:49;;;;;;;9.07;8.43;;;15.20;56.50;;;;;;20799;6733;68119;-95
2022/09/28 10:27:31;;;;;;;11.50;10.70;;;15.10;56.50;;;;;;20854;6756;116050;-86
2022/09/28 10:30:17;;;;;;;8.33;7.73;;;15.10;56.60;;;;;;20601;6756;312059;-86
2022/09/28 10:32:57;;;;;;;7.87;7.20;;;15.40;54.10;;;;;;20496;6762;314168;-87
2022/09/28 10:35:30;;;;;;;3.30;3.00;;;15.70;54.80;;;;;;20838;6732;119951;-87
2022/09/28 10:38:05;;;;;;;2.60;1.73;;;15.80;55.10;;;;;;20675;6737;306643;-87
2022/09/28 10:40:50;;;;;;;2.00;1.90;;;15.90;54.70;;;;;;20661;6734;311369;-86
2022/09/28 10:43:33;;;;;;;3.33;2.93;;;16.20;54.50;;;;;;20496;6741;282492;-86
2022/09/28 10:46:13;;;;;;;4.23;3.83;;;16.40;51.40;;;;;;20874;6741;117256;-87
2022/09/28 10:49:05;;;;;;;2.70;2.50;;;16.30;52.80;;;;;;20882;6741;117055;-86
2022/09/28 10:51:52;;;;;;;1.77;1.67;;;16.10;53.90;;;;;;20595;6751;306224;-87
2022/09/28 10:54:27;;;;;;;2.97;2.65;;;16.20;52.50;;;;;;20625;6756;285669;-87
2022/09/28 10:57:02;;;;;;;2.10;1.50;;;16.50;50.30;;;;;;20803;6756;119380;-86
2022/09/28 10:59:37;;;;;;;3.08;1.48;;;16.30;51.40;;;;;;20622;6749;298873;-85
2022/09/28 11:02:20;;;;;;;2.83;1.63;;;16.40;51.90;;;;;;20864;6749;67503;-89
2022/09/28 11:04:58;;;;;;;2.80;2.53;;;16.40;52.90;;;;;;20671;6749;277552;-90
2022/09/28 11:07:33;;;;;;;2.70;2.53;;;16.60;52.50;;;;;;20590;6749;308508;-88
2022/09/28 11:10:09;;;;;;;2.97;2.40;;;17.00;51.50;;;;;;20677;6753;291406;-88
2022/09/28 11:12:44;;;;;;;3.40;3.00;;;17.30;50.60;;;;;;20568;6737;319685;-86
2022/09/28 11:15:30;;;;;;;2.20;2.00;;;17.90;49.40;;;;;;20677;6737;307659;-86
2022/09/28 11:18:30;;;;;;;2.30;2.10;;;17.90;49.40;;;;;;20658;6737;305357;-87
2022/09/28 11:21:12;;;;;;;6.13;4.87;;;18.10;47.50;;;;;;20874;6747;117557;-85
2022/09/28 11:23:54;;;;;;;4.67;4.00;;;17.90;48.90;;;;;;20617;6740;117720;-85
2022/09/28 11:26:30;;;;;;;4.15;3.75;;;17.60;50.00;;;;;;20641;6745;335079;-86
2022/09/28 11:29:06;;;;;;;4.30;4.00;;;17.60;49.20;;;;;;20595;6764;306832;-86
2022/09/28 11:31:46;;;;;;;8.30;7.62;;;17.90;47.10;;;;;;20596;6749;334308;-87
2022/09/28 11:34:22;;;;;;;3.90;3.60;;;18.10;47.50;;;;;;20680;6738;279590;-87
2022/09/28 11:37:03;;;;;;;1.97;1.70;;;18.30;46.90;;;;;;20879;6738;117032;-86
2022/09/28 11:40:08;;;;;;;3.17;2.87;;;18.10;47.30;;;;;;20849;6738;117228;-86
2022/09/28 11:43:01;;;;;;;2.73;2.53;;;17.70;48.00;;;;;;20800;6738;116909;-86
2022/09/28 11:45:50;;;;;;;2.72;2.37;;;17.40;49.40;;;;;;20221;6809;311356;-86
2022/09/28 11:48:28;;;;;;;4.37;3.70;;;17.50;47.80;;;;;;20897;6738;119248;-85
2022/09/28 11:51:07;;;;;;;5.37;4.47;;;17.50;49.00;;;;;;20894;6738;115881;-85
2022/09/28 11:54:12;;;;;;;2.37;2.17;;;17.30;49.70;;;;;;20666;6738;117339;-85
2022/09/28 11:56:43;;;;;;;4.30;2.33;;;17.10;49.90;;;;;;20458;6794;118890;-86
2022/09/28 11:59:35;;;;;;;2.60;2.27;;;16.90;50.10;;;;;;20836;6756;117137;-85
2022/09/28 12:02:14;;;;;;;4.87;4.37;;;16.70;51.50;;;;;;20783;6753;116857;-85
2022/09/28 12:04:54;;;;;;;7.83;6.10;;;16.70;51.50;;;;;;20789;6768;116920;-85
2022/09/28 12:07:30;;;;;;;5.30;4.90;;;16.70;51.40;;;;;;20642;6753;277317;-88
2022/09/28 12:10:25;;;;;;;4.20;3.57;;;17.00;50.40;;;;;;20498;6760;301814;-88
2022/09/28 12:13:10;;;;;;;2.60;2.40;;;17.90;46.90;;;;;;20436;6775;308557;-87
2022/09/28 12:16:06;;;;;;;2.30;2.10;;;17.90;46.90;;;;;;20552;6758;117370;-88
2022/09/28 12:18:51;;;;;;;3.20;3.00;;;17.70;46.80;;;;;;20396;6773;280119;-87
2022/09/28 12:21:27;;;;;;;2.43;2.00;;;17.70;46.50;;;;;;20551;6753;309872;-87
2022/09/28 12:24:23;;;;;;;1.87;1.70;;;17.80;46.60;;;;;;20913;6729;117247;-91
2022/09/28 12:27:02;;;;;;;2.23;2.03;;;17.80;46.50;;;;;;20848;6753;117628;-87
2022/09/28 12:29:48;;;;;;;;;;;;;;;;;;;;;
2022/09/28 12:32:13;;;;;;;3.13;2.23;;;17.20;47.90;;;;;;20504;6770;308370;-87
2022/09/28 12:34:58;;;;;;;;;;;;;;;;;;;;;
2022/09/28 12:37:41;;;;;;;2.20;2.00;;;17.50;44.70;;;;;;20422;6743;326112;-89
2022/09/28 12:40:37;;;;;;;2.30;1.30;;;17.70;44.70;;;;;;20855;6743;117557;-87
2022/09/28 12:43:33;;;;;;;1.43;1.33;;;17.20;47.50;;;;;;20731;6751;120040;-89
2022/09/28 12:46:32;;;;;;;2.03;1.40;;;17.20;46.90;;;;;;20670;6736;306975;-87
2022/09/28 12:49:31;;;;;;;3.37;1.57;;;17.20;46.90;;;;;;20845;6768;117506;-88
2022/09/28 12:52:17;;;;;;;1.40;1.20;;;17.20;46.90;;;;;;20839;6746;117955;-87
2022/09/28 12:55:01;;;;;;;1.63;1.30;;;17.00;47.70;;;;;;20890;6734;116926;-86
2022/09/28 12:58:17;;;;;;;1.63;1.00;;;16.80;48.20;;;;;;20932;6730;119107;-86
2022/09/28 13:01:02;;;;;;;0.83;0.83;;;16.70;48.70;;;;;;20916;6730;116847;-87
2022/09/28 13:03:45;;;;;;;1.77;1.10;;;16.60;49.30;;;;;;20447;6756;333709;-88
2022/09/28 13:06:27;;;;;;;0.93;0.93;;;16.80;46.50;;;;;;20827;6721;116164;-85
2022/09/28 13:09:18;;;;;;;2.60;1.10;;;16.90;47.60;;;;;;20937;6719;117045;-86
2022/09/28 13:12:18;;;;;;;2.00;1.63;;;16.80;48.10;;;;;;20762;6764;118365;-86
2022/09/28 13:15:09;;;;;;;1.83;1.30;;;16.60;48.50;;;;;;20693;6733;305550;-88
2022/09/28 13:18:01;;;;;;;1.45;1.08;;;16.80;46.60;;;;;;20579;6750;307908;-87
2022/09/28 13:20:50;;;;;;;1.30;1.10;;;17.20;45.60;;;;;;20676;6731;314009;-87
2022/09/28 13:23:27;;;;;;;1.83;0.97;;;17.50;44.20;;;;;;20497;6724;277048;-87
2022/09/28 13:26:17;;;;;;;2.93;1.27;;;17.70;44.00;;;;;;20889;6739;120227;-87
2022/09/28 13:28:53;;;;;;;1.83;1.10;;;17.60;45.30;;;;;;20820;6754;119343;-89
2022/09/28 13:31:32;;;;;;;1.33;0.80;;;17.30;46.30;;;;;;20808;6722;116916;-86
2022/09/28 13:34:07;;;;;;;2.50;1.20;;;17.00;47.00;;;;;;20890;6733;117656;-87
2022/09/28 13:36:42;;;;;;;2.80;1.07;;;16.80;47.70;;;;;;20628;6761;116635;-87
2022/09/28 13:39:35;;;;;;;1.10;1.00;;;16.70;48.00;;;;;;20834;6752;117458;-87
2022/09/28 13:42:23;;;;;;;1.20;1.08;;;16.60;48.40;;;;;;20640;6718;307140;-85
2022/09/28 13:45:14;;;;;;;6.72;5.55;;;16.90;45.80;;;;;;20605;6719;333669;-96
2022/09/28 13:48:04;;;;;;;3.43;3.23;;;17.30;44.50;;;;;;20853;6746;146471;-86
2022/09/28 13:50:43;;;;;;;2.80;2.60;;;17.40;43.60;;;;;;20616;6752;306395;-86
2022/09/28 13:53:52;;;;;;;2.65;2.45;;;17.40;43.80;;;;;;20486;6757;311497;-87
2022/09/28 13:56:25;;;;;;;2.50;2.30;;;17.60;43.50;;;;;;20836;6757;116921;-86